sensor_id;sensor_type;location;lat;lon;timestamp;pressure;altitude;pressure_sealevel;temperature;humidity
72118;BME280;59992;47.490;8.736;2023-11-19T00:02:16;96890.25;;;7.23;99.83
72118;BME280;59992;47.490;8.736;2023-11-19T00:04:45;96880.10;;;7.26;99.44
72118;BME280;59992;47.490;8.736;2023-11-19T00:07:13;96896.40;;;7.27;99.48
72118;BME280;59992;47.490;8.736;2023-11-19T00:09:41;96892.93;;;7.26;99.38
72118;BME280;59992;47.490;8.736;2023-11-19T00:12:10;96889.43;;;7.28;99.61
72118;BME280;59992;47.490;8.736;2023-11-19T00:14:38;96882.08;;;7.29;100.00
72118;BME280;59992;47.490;8.736;2023-11-19T00:17:06;96872.98;;;7.29;99.90
72118;BME280;59992;47.490;8.736;2023-11-19T00:19:34;96861.44;;;7.29;100.00
72118;BME280;59992;47.490;8.736;2023-11-19T00:22:02;96850.96;;;7.32;100.00
72118;BME280;59992;47.490;8.736;2023-11-19T00:24:30;96851.00;;;7.33;99.99
72118;BME280;59992;47.490;8.736;2023-11-19T00:26:59;96841.77;;;7.34;99.95
72118;BME280;59992;47.490;8.736;2023-11-19T00:29:26;96840.62;;;7.36;100.00
72118;BME280;59992;47.490;8.736;2023-11-19T00:31:54;96837.48;;;7.39;100.00
72118;BME280;59992;47.490;8.736;2023-11-19T00:34:22;96829.91;;;7.41;100.00
72118;BME280;59992;47.490;8.736;2023-11-19T00:36:49;96823.63;;;7.45;100.00
72118;BME280;59992;47.490;8.736;2023-11-19T00:39:17;96812.16;;;7.42;100.00
72118;BME280;59992;47.490;8.736;2023-11-19T00:41:44;96827.45;;;7.49;100.00
72118;BME280;59992;47.490;8.736;2023-11-19T00:44:14;96826.52;;;7.46;100.00
72118;BME280;59992;47.490;8.736;2023-11-19T00:46:42;96815.15;;;7.49;100.00
72118;BME280;59992;47.490;8.736;2023-11-19T00:49:10;96803.11;;;7.47;100.00
72118;BME280;59992;47.490;8.736;2023-11-19T00:51:38;96803.19;;;7.50;100.00
72118;BME280;59992;47.490;8.736;2023-11-19T00:54:06;96789.42;;;7.53;100.00
72118;BME280;59992;47.490;8.736;2023-11-19T00:56:33;96776.52;;;7.55;100.00
72118;BME280;59992;47.490;8.736;2023-11-19T00:59:01;96774.11;;;7.58;100.00
72118;BME280;59992;47.490;8.736;2023-11-19T01:01:28;96781.89;;;7.62;100.00
72118;BME280;59992;47.490;8.736;2023-11-19T01:03:57;96790.08;;;7.63;100.00
72118;BME280;59992;47.490;8.736;2023-11-19T01:06:28;96800.90;;;7.69;99.99
72118;BME280;59992;47.490;8.736;2023-11-19T01:08:56;96804.68;;;7.73;100.00
72118;BME280;59992;47.490;8.736;2023-11-19T01:11:26;96794.04;;;7.78;100.00
72118;BME280;59992;47.490;8.736;2023-11-19T01:13:55;96784.61;;;7.83;100.00
72118;BME280;59992;47.490;8.736;2023-11-19T01:16:22;96773.12;;;7.82;99.92
72118;BME280;59992;47.490;8.736;2023-11-19T01:18:50;96785.23;;;7.92;99.94
72118;BME280;59992;47.490;8.736;2023-11-19T01:21:18;96788.15;;;7.94;100.00
72118;BME280;59992;47.490;8.736;2023-11-19T01:23:46;96785.80;;;7.99;99.99
72118;BME280;59992;47.490;8.736;2023-11-19T01:26:14;96778.30;;;8.04;99.63
72118;BME280;59992;47.490;8.736;2023-11-19T01:28:41;96775.52;;;8.07;99.48
72118;BME280;59992;47.490;8.736;2023-11-19T01:31:12;96772.12;;;8.13;99.62
72118;BME280;59992;47.490;8.736;2023-11-19T01:33:42;96773.98;;;8.18;99.63
72118;BME280;59992;47.490;8.736;2023-11-19T01:36:13;96781.45;;;8.23;99.71
72118;BME280;59992;47.490;8.736;2023-11-19T01:38:41;96784.20;;;8.27;99.79
72118;BME280;59992;47.490;8.736;2023-11-19T01:41:09;96779.88;;;8.29;99.68
72118;BME280;59992;47.490;8.736;2023-11-19T01:43:37;96785.98;;;8.34;99.60
72118;BME280;59992;47.490;8.736;2023-11-19T01:46:06;96784.36;;;8.37;99.92
72118;BME280;59992;47.490;8.736;2023-11-19T01:48:38;96786.64;;;8.40;99.70
72118;BME280;59992;47.490;8.736;2023-11-19T01:51:09;96782.48;;;8.39;99.85
72118;BME280;59992;47.490;8.736;2023-11-19T01:53:37;96775.09;;;8.40;99.81
72118;BME280;59992;47.490;8.736;2023-11-19T01:56:08;96768.73;;;8.40;99.96
72118;BME280;59992;47.490;8.736;2023-11-19T01:58:37;96764.95;;;8.39;99.85
72118;BME280;59992;47.490;8.736;2023-11-19T02:01:06;96759.10;;;8.37;99.94
72118;BME280;59992;47.490;8.736;2023-11-19T02:03:35;96752.76;;;8.37;99.96
72118;BME280;59992;47.490;8.736;2023-11-19T02:06:03;96749.48;;;8.36;99.93
72118;BME280;59992;47.490;8.736;2023-11-19T02:08:32;96740.39;;;8.34;99.93
72118;BME280;59992;47.490;8.736;2023-11-19T02:10:59;96751.48;;;8.34;100.00
72118;BME280;59992;47.490;8.736;2023-11-19T02:13:27;96747.84;;;8.36;100.00
72118;BME280;59992;47.490;8.736;2023-11-19T02:15:56;96745.12;;;8.40;100.00
72118;BME280;59992;47.490;8.736;2023-11-19T02:18:26;96735.40;;;8.44;100.00
72118;BME280;59992;47.490;8.736;2023-11-19T02:20:54;96731.55;;;8.46;100.00
72118;BME280;59992;47.490;8.736;2023-11-19T02:23:23;96732.23;;;8.50;100.00
72118;BME280;59992;47.490;8.736;2023-11-19T02:26:00;96738.02;;;8.51;100.00
72118;BME280;59992;47.490;8.736;2023-11-19T02:28:29;96737.94;;;8.51;100.00
72118;BME280;59992;47.490;8.736;2023-11-19T02:30:57;96742.90;;;8.51;100.00
72118;BME280;59992;47.490;8.736;2023-11-19T02:33:24;96737.75;;;8.50;100.00
72118;BME280;59992;47.490;8.736;2023-11-19T02:35:52;96732.25;;;8.50;100.00
72118;BME280;59992;47.490;8.736;2023-11-19T02:38:19;96731.17;;;8.49;100.00
72118;BME280;59992;47.490;8.736;2023-11-19T02:40:48;96726.66;;;8.47;100.00
72118;BME280;59992;47.490;8.736;2023-11-19T02:43:16;96735.46;;;8.46;100.00
72118;BME280;59992;47.490;8.736;2023-11-19T02:45:45;96729.48;;;8.39;100.00
72118;BME280;59992;47.490;8.736;2023-11-19T02:48:12;96740.21;;;8.43;100.00
72118;BME280;59992;47.490;8.736;2023-11-19T02:50:41;96741.38;;;8.40;100.00
72118;BME280;59992;47.490;8.736;2023-11-19T02:53:09;96751.41;;;8.40;100.00
72118;BME280;59992;47.490;8.736;2023-11-19T02:55:38;96763.77;;;8.40;100.00
72118;BME280;59992;47.490;8.736;2023-11-19T02:58:08;96779.23;;;8.40;100.00
72118;BME280;59992;47.490;8.736;2023-11-19T03:00:47;96774.39;;;8.39;100.00
72118;BME280;59992;47.490;8.736;2023-11-19T03:03:19;96755.02;;;8.40;100.00
72118;BME280;59992;47.490;8.736;2023-11-19T03:05:50;96743.23;;;8.39;100.00
72118;BME280;59992;47.490;8.736;2023-11-19T03:08:18;96732.38;;;8.40;100.00
72118;BME280;59992;47.490;8.736;2023-11-19T03:10:46;96723.84;;;8.39;100.00
72118;BME280;59992;47.490;8.736;2023-11-19T03:13:14;96727.84;;;8.40;100.00
72118;BME280;59992;47.490;8.736;2023-11-19T03:15:42;96725.27;;;8.39;100.00
72118;BME280;59992;47.490;8.736;2023-11-19T03:18:09;96724.00;;;8.40;100.00
72118;BME280;59992;47.490;8.736;2023-11-19T03:20:38;96726.17;;;8.42;100.00
72118;BME280;59992;47.490;8.736;2023-11-19T03:23:18;96724.10;;;8.44;100.00
72118;BME280;59992;47.490;8.736;2023-11-19T03:25:46;96714.99;;;8.45;100.00
72118;BME280;59992;47.490;8.736;2023-11-19T03:28:13;96716.80;;;8.45;100.00
72118;BME280;59992;47.490;8.736;2023-11-19T03:30:41;96719.33;;;8.47;100.00
72118;BME280;59992;47.490;8.736;2023-11-19T03:33:10;96717.70;;;8.48;100.00
72118;BME280;59992;47.490;8.736;2023-11-19T03:35:38;96723.02;;;8.49;100.00
72118;BME280;59992;47.490;8.736;2023-11-19T03:38:10;96722.45;;;8.51;100.00
72118;BME280;59992;47.490;8.736;2023-11-19T03:40:38;96722.91;;;8.48;100.00
72118;BME280;59992;47.490;8.736;2023-11-19T03:43:06;96725.44;;;8.56;100.00
72118;BME280;59992;47.490;8.736;2023-11-19T03:45:33;96722.46;;;8.61;100.00
72118;BME280;59992;47.490;8.736;2023-11-19T03:48:03;96725.54;;;8.64;100.00
72118;BME280;59992;47.490;8.736;2023-11-19T03:50:31;96732.20;;;8.65;100.00
72118;BME280;59992;47.490;8.736;2023-11-19T03:52:59;96732.83;;;8.63;100.00
72118;BME280;59992;47.490;8.736;2023-11-19T03:55:26;96731.36;;;8.67;100.00
72118;BME280;59992;47.490;8.736;2023-11-19T03:57:53;96731.19;;;8.73;100.00
72118;BME280;59992;47.490;8.736;2023-11-19T04:00:21;96733.17;;;8.70;100.00
72118;BME280;59992;47.490;8.736;2023-11-19T04:02:49;96735.55;;;8.72;100.00
72118;BME280;59992;47.490;8.736;2023-11-19T04:05:17;96743.02;;;8.74;100.00
72118;BME280;59992;47.490;8.736;2023-11-19T04:07:46;96753.55;;;8.77;100.00
72118;BME280;59992;47.490;8.736;2023-11-19T04:10:13;96749.92;;;8.80;100.00
72118;BME280;59992;47.490;8.736;2023-11-19T04:12:43;96751.13;;;8.80;100.00
72118;BME280;59992;47.490;8.736;2023-11-19T04:15:13;96751.77;;;8.81;100.00
72118;BME280;59992;47.490;8.736;2023-11-19T04:17:45;96752.23;;;8.82;100.00
72118;BME280;59992;47.490;8.736;2023-11-19T04:20:12;96748.21;;;8.85;100.00
72118;BME280;59992;47.490;8.736;2023-11-19T04:22:40;96751.50;;;8.86;100.00
72118;BME280;59992;47.490;8.736;2023-11-19T04:25:08;96750.12;;;8.89;100.00
72118;BME280;59992;47.490;8.736;2023-11-19T04:27:36;96761.12;;;8.91;100.00
72118;BME280;59992;47.490;8.736;2023-11-19T04:30:07;96760.89;;;8.90;100.00
72118;BME280;59992;47.490;8.736;2023-11-19T04:32:38;96752.55;;;8.82;100.00
72118;BME280;59992;47.490;8.736;2023-11-19T04:35:08;96754.31;;;8.87;100.00
72118;BME280;59992;47.490;8.736;2023-11-19T04:37:35;96752.89;;;8.87;100.00
72118;BME280;59992;47.490;8.736;2023-11-19T04:40:04;96746.75;;;8.89;100.00
72118;BME280;59992;47.490;8.736;2023-11-19T04:42:32;96748.00;;;8.92;100.00
72118;BME280;59992;47.490;8.736;2023-11-19T04:45:01;96752.82;;;8.95;100.00
72118;BME280;59992;47.490;8.736;2023-11-19T04:47:28;96747.13;;;8.93;100.00
72118;BME280;59992;47.490;8.736;2023-11-19T04:49:56;96750.56;;;8.91;100.00
72118;BME280;59992;47.490;8.736;2023-11-19T04:52:25;96756.57;;;8.90;100.00
72118;BME280;59992;47.490;8.736;2023-11-19T04:54:52;96756.56;;;8.93;100.00
72118;BME280;59992;47.490;8.736;2023-11-19T04:57:20;96758.27;;;8.91;100.00
72118;BME280;59992;47.490;8.736;2023-11-19T04:59:47;96762.36;;;8.92;100.00
72118;BME280;59992;47.490;8.736;2023-11-19T05:02:15;96768.11;;;8.92;100.00
72118;BME280;59992;47.490;8.736;2023-11-19T05:04:43;96765.21;;;8.94;100.00
72118;BME280;59992;47.490;8.736;2023-11-19T05:07:12;96752.52;;;8.91;100.00
72118;BME280;59992;47.490;8.736;2023-11-19T05:09:40;96751.45;;;8.94;100.00
72118;BME280;59992;47.490;8.736;2023-11-19T05:12:09;96751.26;;;8.95;100.00
72118;BME280;59992;47.490;8.736;2023-11-19T05:14:39;96751.31;;;8.97;100.00
72118;BME280;59992;47.490;8.736;2023-11-19T05:17:07;96757.36;;;9.02;100.00
72118;BME280;59992;47.490;8.736;2023-11-19T05:19:35;96755.23;;;9.04;100.00
72118;BME280;59992;47.490;8.736;2023-11-19T05:22:02;96754.66;;;9.06;100.00
72118;BME280;59992;47.490;8.736;2023-11-19T05:24:30;96749.20;;;9.01;100.00
72118;BME280;59992;47.490;8.736;2023-11-19T05:26:58;96763.54;;;9.11;100.00
72118;BME280;59992;47.490;8.736;2023-11-19T05:29:25;96762.84;;;9.14;100.00
72118;BME280;59992;47.490;8.736;2023-11-19T05:31:54;96756.90;;;9.19;100.00
72118;BME280;59992;47.490;8.736;2023-11-19T05:34:22;96757.29;;;9.19;100.00
72118;BME280;59992;47.490;8.736;2023-11-19T05:36:50;96758.35;;;9.23;100.00
72118;BME280;59992;47.490;8.736;2023-11-19T05:39:17;96758.11;;;9.26;100.00
72118;BME280;59992;47.490;8.736;2023-11-19T05:41:47;96761.52;;;9.30;100.00
72118;BME280;59992;47.490;8.736;2023-11-19T05:44:15;96756.27;;;9.32;100.00
72118;BME280;59992;47.490;8.736;2023-11-19T05:46:43;96754.06;;;9.35;100.00
72118;BME280;59992;47.490;8.736;2023-11-19T05:49:12;96745.71;;;9.37;100.00
72118;BME280;59992;47.490;8.736;2023-11-19T05:51:40;96737.98;;;9.40;100.00
72118;BME280;59992;47.490;8.736;2023-11-19T05:54:08;96742.54;;;9.41;100.00
72118;BME280;59992;47.490;8.736;2023-11-19T05:56:37;96743.35;;;9.43;100.00
72118;BME280;59992;47.490;8.736;2023-11-19T05:59:05;96738.98;;;9.44;100.00
72118;BME280;59992;47.490;8.736;2023-11-19T06:01:34;96741.88;;;9.45;100.00
72118;BME280;59992;47.490;8.736;2023-11-19T06:04:03;96744.38;;;9.49;100.00
72118;BME280;59992;47.490;8.736;2023-11-19T06:06:31;96739.17;;;9.54;100.00
72118;BME280;59992;47.490;8.736;2023-11-19T06:08:59;96743.10;;;9.53;100.00
72118;BME280;59992;47.490;8.736;2023-11-19T06:11:29;96743.16;;;9.56;100.00
72118;BME280;59992;47.490;8.736;2023-11-19T06:13:57;96747.38;;;9.59;100.00
72118;BME280;59992;47.490;8.736;2023-11-19T06:16:25;96751.02;;;9.60;100.00
72118;BME280;59992;47.490;8.736;2023-11-19T06:18:52;96753.98;;;9.61;100.00
72118;BME280;59992;47.490;8.736;2023-11-19T06:21:20;96750.19;;;9.68;100.00
72118;BME280;59992;47.490;8.736;2023-11-19T06:23:48;96757.73;;;9.71;100.00
72118;BME280;59992;47.490;8.736;2023-11-19T06:26:18;96746.73;;;9.69;100.00
72118;BME280;59992;47.490;8.736;2023-11-19T06:28:46;96726.11;;;9.54;100.00
72118;BME280;59992;47.490;8.736;2023-11-19T06:31:14;96758.65;;;9.79;100.00
72118;BME280;59992;47.490;8.736;2023-11-19T06:33:42;96758.73;;;9.82;100.00
72118;BME280;59992;47.490;8.736;2023-11-19T06:36:10;96762.75;;;9.83;100.00
72118;BME280;59992;47.490;8.736;2023-11-19T06:38:43;96762.79;;;9.86;100.00
72118;BME280;59992;47.490;8.736;2023-11-19T06:41:11;96751.88;;;9.81;100.00
72118;BME280;59992;47.490;8.736;2023-11-19T06:43:38;96766.58;;;9.93;100.00
72118;BME280;59992;47.490;8.736;2023-11-19T06:46:13;96764.29;;;9.93;100.00
72118;BME280;59992;47.490;8.736;2023-11-19T06:48:41;96763.05;;;9.99;100.00
72118;BME280;59992;47.490;8.736;2023-11-19T06:51:11;96766.88;;;10.02;100.00
72118;BME280;59992;47.490;8.736;2023-11-19T06:53:39;96763.35;;;10.04;100.00
72118;BME280;59992;47.490;8.736;2023-11-19T06:56:18;96759.55;;;10.07;100.00
72118;BME280;59992;47.490;8.736;2023-11-19T06:58:46;96765.44;;;10.10;100.00
72118;BME280;59992;47.490;8.736;2023-11-19T07:01:14;96764.69;;;10.13;100.00
72118;BME280;59992;47.490;8.736;2023-11-19T07:03:42;96762.20;;;10.19;100.00
72118;BME280;59992;47.490;8.736;2023-11-19T07:06:11;96760.52;;;10.22;100.00
72118;BME280;59992;47.490;8.736;2023-11-19T07:08:39;96759.54;;;10.26;100.00
72118;BME280;59992;47.490;8.736;2023-11-19T07:11:08;96751.23;;;10.26;100.00
72118;BME280;59992;47.490;8.736;2023-11-19T07:13:37;96761.39;;;10.33;100.00
72118;BME280;59992;47.490;8.736;2023-11-19T07:16:08;96768.48;;;10.36;100.00
72118;BME280;59992;47.490;8.736;2023-11-19T07:18:37;96762.55;;;10.38;100.00
72118;BME280;59992;47.490;8.736;2023-11-19T07:21:06;96758.02;;;10.44;100.00
72118;BME280;59992;47.490;8.736;2023-11-19T07:23:34;96761.95;;;10.48;100.00
72118;BME280;59992;47.490;8.736;2023-11-19T07:26:01;96759.45;;;10.52;100.00
72118;BME280;59992;47.490;8.736;2023-11-19T07:28:31;96759.86;;;10.54;100.00
72118;BME280;59992;47.490;8.736;2023-11-19T07:30:59;96757.14;;;10.60;100.00
72118;BME280;59992;47.490;8.736;2023-11-19T07:33:27;96753.55;;;10.62;100.00
72118;BME280;59992;47.490;8.736;2023-11-19T07:35:56;96763.07;;;10.71;100.00
72118;BME280;59992;47.490;8.736;2023-11-19T07:38:24;96769.53;;;10.72;100.00
72118;BME280;59992;47.490;8.736;2023-11-19T07:40:52;96775.73;;;10.76;100.00
72118;BME280;59992;47.490;8.736;2023-11-19T07:43:20;96777.61;;;10.75;100.00
72118;BME280;59992;47.490;8.736;2023-11-19T07:45:47;96782.17;;;10.81;100.00
72118;BME280;59992;47.490;8.736;2023-11-19T07:48:15;96777.60;;;10.84;100.00
72118;BME280;59992;47.490;8.736;2023-11-19T07:50:43;96773.95;;;10.88;100.00
72118;BME280;59992;47.490;8.736;2023-11-19T07:53:10;96774.02;;;10.93;100.00
72118;BME280;59992;47.490;8.736;2023-11-19T07:55:39;96778.20;;;10.95;100.00
72118;BME280;59992;47.490;8.736;2023-11-19T07:58:07;96776.45;;;10.98;100.00
72118;BME280;59992;47.490;8.736;2023-11-19T08:00:35;96776.94;;;11.00;100.00
72118;BME280;59992;47.490;8.736;2023-11-19T08:03:03;96776.89;;;11.02;100.00
72118;BME280;59992;47.490;8.736;2023-11-19T08:05:32;96777.63;;;11.01;100.00
72118;BME280;59992;47.490;8.736;2023-11-19T08:07:59;96781.38;;;11.04;100.00
72118;BME280;59992;47.490;8.736;2023-11-19T08:10:27;96785.73;;;11.06;100.00
72118;BME280;59992;47.490;8.736;2023-11-19T08:12:56;96785.10;;;11.10;100.00
72118;BME280;59992;47.490;8.736;2023-11-19T08:15:24;96779.75;;;11.12;100.00
72118;BME280;59992;47.490;8.736;2023-11-19T08:17:55;96777.29;;;11.15;100.00
72118;BME280;59992;47.490;8.736;2023-11-19T08:20:22;96780.41;;;11.15;100.00
72118;BME280;59992;47.490;8.736;2023-11-19T08:22:51;96785.33;;;11.20;100.00
72118;BME280;59992;47.490;8.736;2023-11-19T08:25:19;96785.91;;;11.18;100.00
72118;BME280;59992;47.490;8.736;2023-11-19T08:27:47;96793.64;;;11.19;100.00
72118;BME280;59992;47.490;8.736;2023-11-19T08:30:15;96787.76;;;11.20;100.00
72118;BME280;59992;47.490;8.736;2023-11-19T08:32:42;96795.73;;;11.22;100.00
72118;BME280;59992;47.490;8.736;2023-11-19T08:35:10;96804.30;;;11.22;100.00
72118;BME280;59992;47.490;8.736;2023-11-19T08:37:37;96803.17;;;11.22;100.00
72118;BME280;59992;47.490;8.736;2023-11-19T08:40:08;96802.09;;;11.26;100.00
72118;BME280;59992;47.490;8.736;2023-11-19T08:42:36;96799.80;;;11.26;100.00
72118;BME280;59992;47.490;8.736;2023-11-19T08:45:07;96801.95;;;11.26;100.00
72118;BME280;59992;47.490;8.736;2023-11-19T08:47:37;96804.42;;;11.30;100.00
72118;BME280;59992;47.490;8.736;2023-11-19T08:50:07;96810.27;;;11.35;100.00
72118;BME280;59992;47.490;8.736;2023-11-19T08:52:35;96805.61;;;11.39;100.00
72118;BME280;59992;47.490;8.736;2023-11-19T08:55:03;96812.94;;;11.42;100.00
72118;BME280;59992;47.490;8.736;2023-11-19T08:57:32;96814.55;;;11.50;100.00
72118;BME280;59992;47.490;8.736;2023-11-19T09:00:00;96816.97;;;11.49;100.00
72118;BME280;59992;47.490;8.736;2023-11-19T09:02:27;96821.06;;;11.54;100.00
72118;BME280;59992;47.490;8.736;2023-11-19T09:04:56;96821.27;;;11.59;100.00
72118;BME280;59992;47.490;8.736;2023-11-19T09:07:23;96820.54;;;11.61;100.00
72118;BME280;59992;47.490;8.736;2023-11-19T09:09:52;96817.70;;;11.63;100.00
72118;BME280;59992;47.490;8.736;2023-11-19T09:12:19;96815.16;;;11.65;100.00
72118;BME280;59992;47.490;8.736;2023-11-19T09:14:47;96816.59;;;11.65;100.00
72118;BME280;59992;47.490;8.736;2023-11-19T09:17:16;96818.60;;;11.67;100.00
72118;BME280;59992;47.490;8.736;2023-11-19T09:19:48;96818.11;;;11.65;100.00
72118;BME280;59992;47.490;8.736;2023-11-19T09:22:16;96817.33;;;11.69;100.00
72118;BME280;59992;47.490;8.736;2023-11-19T09:24:45;96816.79;;;11.74;100.00
72118;BME280;59992;47.490;8.736;2023-11-19T09:27:13;96814.84;;;11.76;100.00
72118;BME280;59992;47.490;8.736;2023-11-19T09:29:41;96818.11;;;11.83;100.00
72118;BME280;59992;47.490;8.736;2023-11-19T09:32:13;96823.38;;;11.79;100.00
72118;BME280;59992;47.490;8.736;2023-11-19T09:34:41;96827.91;;;11.84;100.00
72118;BME280;59992;47.490;8.736;2023-11-19T09:37:09;96830.42;;;11.84;100.00
72118;BME280;59992;47.490;8.736;2023-11-19T09:39:37;96834.44;;;11.83;100.00
72118;BME280;59992;47.490;8.736;2023-11-19T09:42:07;96833.00;;;11.83;100.00
72118;BME280;59992;47.490;8.736;2023-11-19T09:44:35;96835.27;;;11.84;100.00
72118;BME280;59992;47.490;8.736;2023-11-19T09:47:05;96833.97;;;11.82;100.00
72118;BME280;59992;47.490;8.736;2023-11-19T09:49:39;96828.76;;;11.91;100.00
72118;BME280;59992;47.490;8.736;2023-11-19T09:52:08;96827.27;;;11.93;100.00
72118;BME280;59992;47.490;8.736;2023-11-19T09:54:36;96824.42;;;11.98;100.00
72118;BME280;59992;47.490;8.736;2023-11-19T09:57:04;96820.54;;;12.02;100.00
72118;BME280;59992;47.490;8.736;2023-11-19T09:59:35;96806.95;;;12.02;100.00
72118;BME280;59992;47.490;8.736;2023-11-19T10:02:05;96814.23;;;12.16;100.00
72118;BME280;59992;47.490;8.736;2023-11-19T10:04:36;96813.48;;;12.22;100.00
72118;BME280;59992;47.490;8.736;2023-11-19T10:07:04;96805.05;;;12.29;100.00
72118;BME280;59992;47.490;8.736;2023-11-19T10:09:32;96809.52;;;12.37;100.00
72118;BME280;59992;47.490;8.736;2023-11-19T10:12:00;96806.80;;;12.38;100.00
72118;BME280;59992;47.490;8.736;2023-11-19T10:14:28;96809.80;;;12.41;100.00
72118;BME280;59992;47.490;8.736;2023-11-19T10:16:58;96803.16;;;12.38;100.00
72118;BME280;59992;47.490;8.736;2023-11-19T10:19:32;96803.27;;;12.34;100.00
72118;BME280;59992;47.490;8.736;2023-11-19T10:22:04;96804.51;;;12.37;100.00
72118;BME280;59992;47.490;8.736;2023-11-19T10:24:33;96806.11;;;12.37;100.00
72118;BME280;59992;47.490;8.736;2023-11-19T10:27:02;96797.14;;;12.37;100.00
72118;BME280;59992;47.490;8.736;2023-11-19T10:29:31;96798.89;;;12.37;100.00
72118;BME280;59992;47.490;8.736;2023-11-19T10:31:59;96803.08;;;12.30;100.00
72118;BME280;59992;47.490;8.736;2023-11-19T10:34:27;96799.68;;;12.32;100.00
72118;BME280;59992;47.490;8.736;2023-11-19T10:36:55;96797.58;;;12.34;100.00
72118;BME280;59992;47.490;8.736;2023-11-19T10:39:22;96793.38;;;12.32;100.00
72118;BME280;59992;47.490;8.736;2023-11-19T10:41:54;96791.02;;;12.31;100.00
72118;BME280;59992;47.490;8.736;2023-11-19T10:44:32;96792.72;;;12.35;100.00
72118;BME280;59992;47.490;8.736;2023-11-19T10:47:07;96789.61;;;12.36;100.00
72118;BME280;59992;47.490;8.736;2023-11-19T10:49:35;96784.96;;;12.41;100.00
72118;BME280;59992;47.490;8.736;2023-11-19T10:52:03;96804.05;;;12.44;100.00
72118;BME280;59992;47.490;8.736;2023-11-19T10:54:33;96786.38;;;12.47;100.00
72118;BME280;59992;47.490;8.736;2023-11-19T10:57:02;96786.80;;;12.44;100.00
72118;BME280;59992;47.490;8.736;2023-11-19T10:59:33;96793.05;;;12.46;100.00
72118;BME280;59992;47.490;8.736;2023-11-19T11:02:06;96788.23;;;12.42;100.00
72118;BME280;59992;47.490;8.736;2023-11-19T11:04:40;96787.58;;;12.45;100.00
72118;BME280;59992;47.490;8.736;2023-11-19T11:07:10;96784.56;;;12.41;100.00
72118;BME280;59992;47.490;8.736;2023-11-19T11:09:39;96780.33;;;12.41;100.00
72118;BME280;59992;47.490;8.736;2023-11-19T11:12:10;96776.53;;;12.42;100.00
72118;BME280;59992;47.490;8.736;2023-11-19T11:14:38;96772.13;;;12.49;100.00
72118;BME280;59992;47.490;8.736;2023-11-19T11:17:08;96767.63;;;12.49;100.00
72118;BME280;59992;47.490;8.736;2023-11-19T11:19:37;96761.87;;;12.51;100.00
72118;BME280;59992;47.490;8.736;2023-11-19T11:22:06;96750.03;;;12.52;100.00
72118;BME280;59992;47.490;8.736;2023-11-19T11:25:01;96733.92;;;12.52;100.00
72118;BME280;59992;47.490;8.736;2023-11-19T11:27:46;96740.85;;;12.64;100.00
72118;BME280;59992;47.490;8.736;2023-11-19T11:30:23;96737.23;;;12.66;100.00
72118;BME280;59992;47.490;8.736;2023-11-19T11:33:02;96734.95;;;12.67;100.00
72118;BME280;59992;47.490;8.736;2023-11-19T11:35:41;96740.45;;;12.70;100.00
72118;BME280;59992;47.490;8.736;2023-11-19T11:38:13;96741.23;;;12.72;100.00
72118;BME280;59992;47.490;8.736;2023-11-19T11:40:41;96726.10;;;12.73;100.00
72118;BME280;59992;47.490;8.736;2023-11-19T11:43:44;96722.59;;;12.81;100.00
72118;BME280;59992;47.490;8.736;2023-11-19T11:49:29;96732.38;;;13.11;100.00
72118;BME280;59992;47.490;8.736;2023-11-19T11:52:02;96735.39;;;13.16;100.00
72118;BME280;59992;47.490;8.736;2023-11-19T11:54:31;96736.08;;;13.18;99.55
72118;BME280;59992;47.490;8.736;2023-11-19T11:57:06;96731.23;;;13.11;99.04
72118;BME280;59992;47.490;8.736;2023-11-19T11:59:43;96724.76;;;13.07;99.27
72118;BME280;59992;47.490;8.736;2023-11-19T12:02:13;96723.63;;;13.08;99.48
72118;BME280;59992;47.490;8.736;2023-11-19T12:04:41;96724.41;;;13.03;99.50
72118;BME280;59992;47.490;8.736;2023-11-19T12:07:13;96727.73;;;13.00;99.10
72118;BME280;59992;47.490;8.736;2023-11-19T12:09:41;96730.41;;;13.09;99.21
72118;BME280;59992;47.490;8.736;2023-11-19T12:12:19;96734.52;;;13.10;99.06
72118;BME280;59992;47.490;8.736;2023-11-19T12:15:17;96736.84;;;13.05;98.42
72118;BME280;59992;47.490;8.736;2023-11-19T12:17:50;96732.59;;;13.09;98.25
72118;BME280;59992;47.490;8.736;2023-11-19T12:20:19;96730.92;;;13.09;98.99
72118;BME280;59992;47.490;8.736;2023-11-19T12:22:48;96722.51;;;13.01;98.73
72118;BME280;59992;47.490;8.736;2023-11-19T12:25:17;96724.08;;;12.99;98.93
72118;BME280;59992;47.490;8.736;2023-11-19T12:27:46;96727.58;;;12.99;98.88
72118;BME280;59992;47.490;8.736;2023-11-19T12:30:18;96728.23;;;13.04;99.65
72118;BME280;59992;47.490;8.736;2023-11-19T12:32:49;96724.06;;;13.06;99.70
72118;BME280;59992;47.490;8.736;2023-11-19T12:35:17;96729.72;;;13.10;99.94
72118;BME280;59992;47.490;8.736;2023-11-19T12:37:46;96731.52;;;13.08;99.03
72118;BME280;59992;47.490;8.736;2023-11-19T12:40:15;96733.54;;;13.14;99.18
72118;BME280;59992;47.490;8.736;2023-11-19T12:42:44;96734.27;;;13.10;98.23
72118;BME280;59992;47.490;8.736;2023-11-19T12:45:13;96732.23;;;13.11;98.44
72118;BME280;59992;47.490;8.736;2023-11-19T12:47:43;96721.66;;;13.10;98.62
72118;BME280;59992;47.490;8.736;2023-11-19T12:50:11;96710.46;;;13.07;98.51
72118;BME280;59992;47.490;8.736;2023-11-19T12:52:39;96711.13;;;13.05;97.98
72118;BME280;59992;47.490;8.736;2023-11-19T12:55:24;96705.98;;;13.05;97.93
72118;BME280;59992;47.490;8.736;2023-11-19T12:57:53;96707.33;;;13.05;98.55
72118;BME280;59992;47.490;8.736;2023-11-19T13:00:24;96710.30;;;13.05;97.38
72118;BME280;59992;47.490;8.736;2023-11-19T13:02:54;96700.86;;;13.04;97.52
72118;BME280;59992;47.490;8.736;2023-11-19T13:05:25;96699.76;;;13.09;98.13
72118;BME280;59992;47.490;8.736;2023-11-19T13:08:00;96696.75;;;13.05;97.87
72118;BME280;59992;47.490;8.736;2023-11-19T13:10:28;96697.46;;;13.08;97.90
72118;BME280;59992;47.490;8.736;2023-11-19T13:13:07;96696.30;;;13.15;99.81